Time;durP1;ratioP1;P1;durP2;ratioP2;P2;SDS_P1;SDS_P2;PMS_P1;PMS_P2;Temp;Humidity;BMP_temperature;BMP_pressure;BME280_temperature;BME280_humidity;BME280_pressure;Samples;Min_cycle;Max_cycle;Signal;HPM_P1;HPM_P2
2023/06/07 00:01:54;;;;;;;23.98;6.97;;;9.60;99.90;;;;;;5132227;27;20069;-83
2023/06/07 00:04:19;;;;;;;15.45;6.43;;;9.70;99.90;;;;;;5111518;27;20074;-84
2023/06/07 00:06:48;;;;;;;18.48;6.55;;;9.60;99.90;;;;;;5124292;27;20073;-83
2023/06/07 00:09:14;;;;;;;16.77;6.78;;;9.60;99.90;;;;;;5128827;27;20044;-83
2023/06/07 00:11:42;;;;;;;15.95;7.28;;;9.60;99.90;;;;;;5144352;27;20043;-84
2023/06/07 00:14:08;;;;;;;19.25;7.18;;;9.50;99.90;;;;;;5101565;27;20624;-84
2023/06/07 00:16:33;;;;;;;17.45;7.00;;;9.50;99.90;;;;;;5119401;27;20070;-84
2023/06/07 00:19:01;;;;;;;16.17;7.13;;;9.50;99.90;;;;;;5111336;27;20782;-84
2023/06/07 00:21:30;;;;;;;16.23;7.13;;;9.50;99.90;;;;;;5094063;27;21099;-84
2023/06/07 00:23:55;;;;;;;13.10;6.70;;;9.50;99.90;;;;;;5097240;27;20058;-84
2023/06/07 00:26:21;;;;;;;23.77;7.15;;;9.50;99.90;;;;;;5080838;27;20439;-84
2023/06/07 00:28:47;;;;;;;20.05;6.82;;;9.60;99.90;;;;;;5084896;27;20040;-84
2023/06/07 00:31:12;;;;;;;17.65;7.18;;;9.60;99.90;;;;;;5102625;27;20042;-83
2023/06/07 00:33:38;;;;;;;20.38;7.90;;;9.60;99.90;;;;;;5096095;27;20036;-84
2023/06/07 00:36:04;;;;;;;15.90;7.35;;;9.60;99.90;;;;;;5100880;27;20057;-84
2023/06/07 00:38:32;;;;;;;19.67;7.53;;;9.50;99.90;;;;;;5102084;27;20055;-84
2023/06/07 00:40:58;;;;;;;24.20;8.23;;;9.50;99.90;;;;;;5111768;27;20113;-84
2023/06/07 00:43:24;;;;;;;18.42;7.15;;;9.50;99.90;;;;;;5113084;27;20179;-84
2023/06/07 00:45:50;;;;;;;18.23;6.90;;;9.50;99.90;;;;;;5105082;27;20118;-84
2023/06/07 00:48:16;;;;;;;13.52;7.20;;;9.40;99.90;;;;;;5102644;27;20088;-85
2023/06/07 00:50:42;;;;;;;24.73;7.25;;;9.40;99.90;;;;;;5122880;27;20130;-84
2023/06/07 00:53:08;;;;;;;20.67;7.35;;;9.50;99.90;;;;;;5129743;27;20043;-85
2023/06/07 00:55:37;;;;;;;22.77;8.15;;;9.50;99.90;;;;;;5132957;27;20491;-85
2023/06/07 00:58:03;;;;;;;16.15;6.65;;;9.50;99.90;;;;;;5101031;27;20046;-84
2023/06/07 01:00:30;;;;;;;18.83;7.60;;;9.50;99.90;;;;;;5118784;27;20057;-85
2023/06/07 01:02:56;;;;;;;18.50;7.50;;;9.40;99.90;;;;;;5101236;28;20453;-85
2023/06/07 01:05:22;;;;;;;19.75;7.47;;;9.50;99.90;;;;;;5102031;27;20035;-85
2023/06/07 01:07:49;;;;;;;22.92;7.53;;;9.40;99.90;;;;;;5107204;27;20058;-85
2023/06/07 01:10:16;;;;;;;25.40;7.25;;;9.40;99.90;;;;;;5085215;27;20031;-85
2023/06/07 01:12:47;;;;;;;19.90;7.95;;;9.40;99.90;;;;;;5085988;27;20366;-85
2023/06/07 01:15:13;;;;;;;18.75;7.43;;;9.40;99.90;;;;;;5106718;27;20378;-85
2023/06/07 01:17:44;;;;;;;18.90;6.78;;;9.40;99.90;;;;;;5128826;27;20481;-84
2023/06/07 01:20:13;;;;;;;20.85;6.97;;;9.40;99.90;;;;;;5102190;27;20043;-85
2023/06/07 01:22:44;;;;;;;24.15;7.70;;;9.50;99.90;;;;;;5097203;27;20050;-85
2023/06/07 01:25:13;;;;;;;18.95;6.82;;;9.40;99.90;;;;;;5103323;27;20365;-85
2023/06/07 01:27:43;;;;;;;17.75;6.68;;;9.40;99.90;;;;;;5118391;27;20103;-85
2023/06/07 01:30:11;;;;;;;22.23;7.45;;;9.40;99.90;;;;;;5124119;27;20133;-85
2023/06/07 01:32:40;;;;;;;14.75;6.28;;;9.40;99.90;;;;;;5095599;27;20039;-86
2023/06/07 01:35:08;;;;;;;15.65;6.32;;;9.40;99.90;;;;;;5091307;27;20038;-86
2023/06/07 01:37:35;;;;;;;19.25;6.45;;;9.50;99.90;;;;;;5098196;27;20078;-85
2023/06/07 01:40:03;;;;;;;16.20;5.80;;;9.50;99.90;;;;;;5089220;27;20062;-86
2023/06/07 01:42:33;;;;;;;13.57;6.15;;;9.50;99.90;;;;;;5106531;27;20322;-86
2023/06/07 01:45:06;;;;;;;19.33;7.13;;;9.50;99.90;;;;;;5123036;27;20118;-86
2023/06/07 01:47:33;;;;;;;12.15;5.38;;;9.50;99.90;;;;;;5114503;27;20107;-86
2023/06/07 01:49:59;;;;;;;14.50;5.65;;;9.30;99.90;;;;;;5088812;27;20043;-85
2023/06/07 01:52:24;;;;;;;15.98;6.03;;;9.30;99.90;;;;;;5108844;27;20041;-86
2023/06/07 01:54:50;;;;;;;13.60;5.72;;;9.40;99.90;;;;;;5128002;27;20411;-85
2023/06/07 01:57:22;;;;;;;22.17;6.18;;;9.30;99.90;;;;;;5123902;27;20601;-85
2023/06/07 02:00:10;;;;;;;19.80;5.80;;;9.30;99.90;;;;;;5121679;27;20050;-85
2023/06/07 02:02:48;;;;;;;12.52;5.15;;;9.20;99.90;;;;;;5087511;27;20050;-86
2023/06/07 02:05:17;;;;;;;20.65;6.22;;;9.20;99.90;;;;;;5124880;27;20137;-85
2023/06/07 02:07:53;;;;;;;18.60;6.78;;;9.20;99.90;;;;;;5098642;27;20091;-86
2023/06/07 02:10:23;;;;;;;15.32;6.13;;;9.20;99.90;;;;;;5087468;27;20469;-85
2023/06/07 02:12:52;;;;;;;20.25;6.18;;;9.20;99.90;;;;;;5132825;27;20046;-85
2023/06/07 02:15:22;;;;;;;16.23;6.30;;;9.20;99.90;;;;;;5111634;27;20092;-85
2023/06/07 02:17:57;;;;;;;12.80;6.05;;;9.20;99.90;;;;;;5091743;27;20045;-86
2023/06/07 02:20:30;;;;;;;19.63;6.30;;;9.20;99.90;;;;;;5122477;27;20542;-86
2023/06/07 02:22:57;;;;;;;20.73;6.25;;;9.30;99.90;;;;;;5106098;27;20330;-87
2023/06/07 02:25:23;;;;;;;20.55;6.03;;;9.30;99.90;;;;;;5096725;27;20031;-86
2023/06/07 02:27:50;;;;;;;15.15;6.32;;;9.30;99.90;;;;;;5123180;27;20102;-85
2023/06/07 02:30:16;;;;;;;18.20;6.53;;;9.40;99.90;;;;;;5098258;27;20142;-86
2023/06/07 02:32:45;;;;;;;16.98;6.07;;;9.40;99.90;;;;;;5106247;27;20044;-86
2023/06/07 02:35:11;;;;;;;18.88;6.57;;;9.40;99.90;;;;;;5122880;27;20476;-86
2023/06/07 02:37:37;;;;;;;17.02;5.90;;;9.40;99.90;;;;;;5111676;27;20173;-86
2023/06/07 02:40:10;;;;;;;15.52;5.60;;;9.40;99.90;;;;;;5093715;27;20505;-86
2023/06/07 02:42:37;;;;;;;27.52;6.70;;;9.40;99.90;;;;;;5146164;27;20564;-85
2023/06/07 02:45:06;;;;;;;14.85;5.82;;;9.50;99.90;;;;;;5102518;27;20189;-85
2023/06/07 02:47:31;;;;;;;21.10;6.22;;;9.50;99.90;;;;;;5102183;27;20038;-85
2023/06/07 02:50:00;;;;;;;20.65;6.10;;;9.50;99.90;;;;;;5103976;27;20031;-86
2023/06/07 02:52:27;;;;;;;13.63;6.00;;;9.60;99.90;;;;;;5109999;27;20614;-86
2023/06/07 02:54:53;;;;;;;20.58;7.13;;;9.70;99.90;;;;;;5134770;27;20684;-86
2023/06/07 02:57:19;;;;;;;18.38;5.85;;;9.70;99.90;;;;;;5111798;27;20193;-85
2023/06/07 02:59:44;;;;;;;17.83;6.57;;;9.70;99.90;;;;;;5084000;27;20066;-86
2023/06/07 03:02:13;;;;;;;13.90;5.10;;;9.70;99.90;;;;;;5109980;27;20075;-86
2023/06/07 03:04:40;;;;;;;18.80;5.85;;;9.80;99.90;;;;;;5105078;27;20050;-86
2023/06/07 03:07:06;;;;;;;17.15;5.90;;;9.80;99.90;;;;;;5105377;27;20039;-85
2023/06/07 03:09:32;;;;;;;18.58;6.72;;;9.90;99.90;;;;;;5127071;27;20050;-86
2023/06/07 03:11:57;;;;;;;16.27;6.32;;;10.00;99.90;;;;;;5101082;27;20634;-85
2023/06/07 03:14:23;;;;;;;19.98;4.90;;;10.10;99.90;;;;;;5102664;27;20130;-86
2023/06/07 03:16:49;;;;;;;16.40;4.68;;;10.10;99.90;;;;;;5138483;27;20057;-86
2023/06/07 03:19:15;;;;;;;15.32;5.50;;;10.30;99.90;;;;;;5125378;27;20485;-87
2023/06/07 03:21:44;;;;;;;15.52;5.45;;;10.50;99.90;;;;;;5086156;27;20039;-86
2023/06/07 03:24:16;;;;;;;17.10;5.70;;;10.50;99.90;;;;;;5121594;27;20043;-86
2023/06/07 03:26:42;;;;;;;17.92;5.75;;;10.50;99.90;;;;;;5129237;27;20084;-84
2023/06/07 03:29:10;;;;;;;15.20;4.65;;;10.70;99.90;;;;;;5085705;27;20043;-85
2023/06/07 03:31:37;;;;;;;13.90;4.78;;;10.80;99.90;;;;;;5091759;27;20061;-86
2023/06/07 03:34:02;;;;;;;13.68;5.32;;;10.80;99.90;;;;;;5105177;27;20090;-84
2023/06/07 03:36:31;;;;;;;17.02;5.05;;;10.80;99.90;;;;;;5094693;27;20047;-86
2023/06/07 03:38:58;;;;;;;15.10;4.85;;;10.90;99.90;;;;;;5092974;27;20152;-85
2023/06/07 03:41:23;;;;;;;13.07;5.13;;;11.00;99.90;;;;;;5057742;28;20051;-86
2023/06/07 03:43:50;;;;;;;21.05;5.85;;;11.00;99.90;;;;;;5073514;28;20036;-85
2023/06/07 03:46:15;;;;;;;23.00;5.63;;;11.10;99.90;;;;;;5084702;27;20254;-85
2023/06/07 03:48:41;;;;;;;15.38;5.35;;;11.10;99.90;;;;;;5062912;28;20853;-85
2023/06/07 03:51:07;;;;;;;15.38;5.65;;;11.10;99.90;;;;;;5063259;28;20447;-86
2023/06/07 03:53:35;;;;;;;16.02;5.75;;;11.20;99.90;;;;;;5059128;28;20141;-85
2023/06/07 03:56:01;;;;;;;14.40;5.95;;;11.30;99.90;;;;;;5072626;28;21016;-86
2023/06/07 03:58:26;;;;;;;16.75;6.32;;;11.30;99.90;;;;;;5065013;28;20159;-85
2023/06/07 04:00:52;;;;;;;14.55;6.03;;;11.30;99.90;;;;;;5088659;27;20131;-85
2023/06/07 04:03:24;;;;;;;17.38;6.10;;;11.40;99.90;;;;;;5056502;28;20100;-85
2023/06/07 04:05:52;;;;;;;19.52;5.85;;;11.40;99.90;;;;;;5078561;28;20036;-84
2023/06/07 04:08:18;;;;;;;15.20;5.15;;;11.50;99.90;;;;;;5101443;27;20036;-85
2023/06/07 04:10:44;;;;;;;16.08;5.32;;;11.50;99.90;;;;;;5072095;28;20093;-85
2023/06/07 04:13:10;;;;;;;17.75;5.88;;;11.50;99.90;;;;;;5062852;28;20514;-85
2023/06/07 04:15:35;;;;;;;17.08;5.47;;;11.60;99.90;;;;;;5065632;28;20517;-85
2023/06/07 04:18:01;;;;;;;14.20;5.47;;;11.60;99.90;;;;;;5076237;28;20541;-85
2023/06/07 04:20:30;;;;;;;13.50;4.55;;;11.60;99.90;;;;;;5064370;28;20657;-84
2023/06/07 04:22:56;;;;;;;13.30;4.95;;;11.60;99.90;;;;;;5064438;28;20615;-84
2023/06/07 04:25:31;;;;;;;11.93;4.45;;;11.60;99.90;;;;;;5062342;28;20033;-85
2023/06/07 04:27:59;;;;;;;12.15;4.97;;;11.60;99.90;;;;;;5061120;28;20722;-84
2023/06/07 04:30:42;;;;;;;14.82;4.60;;;11.60;99.90;;;;;;5056637;28;20036;-85
2023/06/07 04:33:14;;;;;;;13.13;4.15;;;11.70;99.90;;;;;;5096186;27;20044;-85
2023/06/07 04:35:42;;;;;;;13.80;4.65;;;11.70;99.90;;;;;;5073616;28;20040;-84
2023/06/07 04:38:15;;;;;;;16.80;5.50;;;11.80;99.90;;;;;;5100381;27;20054;-85
2023/06/07 04:40:42;;;;;;;13.93;4.07;;;11.80;99.90;;;;;;5088617;28;20119;-84
2023/06/07 04:43:11;;;;;;;13.25;4.18;;;11.90;99.90;;;;;;5088597;28;20051;-83
2023/06/07 04:45:39;;;;;;;12.57;4.25;;;12.00;99.90;;;;;;5096409;27;20155;-84
2023/06/07 04:48:11;;;;;;;16.08;3.95;;;12.00;99.90;;;;;;5098780;27;20038;-83
2023/06/07 04:50:38;;;;;;;14.38;3.83;;;12.00;99.90;;;;;;5098865;27;20035;-83
2023/06/07 04:53:04;;;;;;;15.60;4.18;;;12.00;99.90;;;;;;5081528;27;20038;-83
2023/06/07 04:55:34;;;;;;;14.40;3.90;;;12.00;99.90;;;;;;5113929;27;20038;-83
2023/06/07 04:58:03;;;;;;;13.57;4.18;;;12.10;99.90;;;;;;5107588;27;20088;-83
2023/06/07 05:00:30;;;;;;;12.27;3.85;;;12.20;99.90;;;;;;5099083;27;20117;-83
2023/06/07 05:02:55;;;;;;;11.20;3.70;;;12.10;99.90;;;;;;5120975;27;20043;-83
2023/06/07 05:05:21;;;;;;;10.43;4.10;;;12.20;99.90;;;;;;5089252;28;20046;-83
2023/06/07 05:07:49;;;;;;;10.43;4.20;;;12.30;99.90;;;;;;5095189;27;20039;-83
2023/06/07 05:10:17;;;;;;;14.80;4.35;;;12.20;99.90;;;;;;5082620;28;20040;-83
2023/06/07 05:12:44;;;;;;;13.10;4.30;;;12.20;99.90;;;;;;5101226;28;21132;-83
2023/06/07 05:15:10;;;;;;;11.18;4.25;;;12.40;99.90;;;;;;5081514;28;20047;-82
2023/06/07 05:17:38;;;;;;;14.43;4.40;;;12.50;99.90;;;;;;5089939;28;20096;-83
2023/06/07 05:20:10;;;;;;;14.77;4.68;;;12.60;99.90;;;;;;5097543;28;20127;-84
2023/06/07 05:22:37;;;;;;;13.73;4.57;;;12.50;99.90;;;;;;5100267;28;20124;-83
2023/06/07 05:25:03;;;;;;;14.15;4.50;;;12.40;99.90;;;;;;5093790;28;21204;-84
2023/06/07 05:27:29;;;;;;;14.73;4.93;;;12.40;99.90;;;;;;5115048;27;20039;-83
2023/06/07 05:29:55;;;;;;;13.73;4.40;;;12.30;99.90;;;;;;5079309;28;20108;-83
2023/06/07 05:32:20;;;;;;;11.23;4.13;;;12.40;99.90;;;;;;5130358;27;20048;-83
2023/06/07 05:34:51;;;;;;;8.70;3.80;;;12.60;99.90;;;;;;5101643;28;20521;-82
2023/06/07 05:37:18;;;;;;;11.50;3.75;;;12.70;99.90;;;;;;5105096;27;20052;-82
2023/06/07 05:39:46;;;;;;;11.30;3.70;;;12.40;99.90;;;;;;5080920;28;20048;-83
2023/06/07 05:42:12;;;;;;;15.88;3.80;;;12.50;99.90;;;;;;5102519;27;20041;-82
2023/06/07 05:44:41;;;;;;;10.60;4.10;;;12.50;99.90;;;;;;5065581;28;20647;-82
2023/06/07 05:47:07;;;;;;;15.80;4.28;;;12.80;99.90;;;;;;5094808;28;20562;-82
2023/06/07 05:49:32;;;;;;;9.88;3.90;;;13.00;99.90;;;;;;5062012;28;20228;-83
2023/06/07 05:51:58;;;;;;;10.02;3.75;;;13.20;99.90;;;;;;5083567;28;20440;-82
2023/06/07 05:54:25;;;;;;;13.55;3.85;;;13.20;99.90;;;;;;5079466;28;20031;-82
2023/06/07 05:56:51;;;;;;;12.65;3.85;;;13.30;99.90;;;;;;5085012;28;20469;-82
2023/06/07 05:59:20;;;;;;;9.93;3.63;;;13.50;99.90;;;;;;5070324;28;20496;-82
2023/06/07 06:01:46;;;;;;;8.18;3.78;;;13.40;99.90;;;;;;5070355;28;20146;-82
2023/06/07 06:04:12;;;;;;;16.63;4.25;;;13.40;99.90;;;;;;5077335;28;20146;-82
2023/06/07 06:06:38;;;;;;;12.43;4.13;;;13.40;99.90;;;;;;5068507;28;20051;-82
2023/06/07 06:09:04;;;;;;;10.10;4.30;;;13.50;99.90;;;;;;5068579;28;20035;-82
2023/06/07 06:11:30;;;;;;;9.40;3.45;;;13.40;99.90;;;;;;5088145;28;20038;-83
2023/06/07 06:13:56;;;;;;;9.70;4.35;;;13.50;99.90;;;;;;5091901;27;20040;-81
2023/06/07 06:16:25;;;;;;;11.50;3.70;;;13.50;99.90;;;;;;5068320;28;20078;-83
2023/06/07 06:18:51;;;;;;;12.63;4.32;;;13.20;99.90;;;;;;5084545;28;20193;-82
2023/06/07 06:21:17;;;;;;;9.65;3.55;;;13.30;99.90;;;;;;5096020;27;20076;-83
2023/06/07 06:23:42;;;;;;;9.63;3.63;;;13.30;99.90;;;;;;5090644;28;20043;-83
2023/06/07 06:26:08;;;;;;;10.57;3.65;;;13.10;99.90;;;;;;5068525;28;20029;-82
2023/06/07 06:28:34;;;;;;;10.32;4.03;;;13.20;99.90;;;;;;5084941;28;20075;-82
2023/06/07 06:31:03;;;;;;;11.07;4.55;;;13.20;99.90;;;;;;5089159;28;20139;-82
2023/06/07 06:33:29;;;;;;;11.23;3.65;;;13.10;99.90;;;;;;5090466;28;20072;-82
2023/06/07 06:35:55;;;;;;;12.07;4.30;;;13.40;99.90;;;;;;5080814;28;20066;-83
2023/06/07 06:38:21;;;;;;;11.32;3.88;;;13.40;99.90;;;;;;5068518;28;20059;-82
2023/06/07 06:40:46;;;;;;;13.85;3.92;;;13.40;99.90;;;;;;5085285;28;20040;-83
2023/06/07 06:43:12;;;;;;;10.10;4.13;;;13.60;99.90;;;;;;5091517;28;20032;-82
2023/06/07 06:45:38;;;;;;;10.35;4.55;;;14.10;99.90;;;;;;5072379;28;20028;-82
2023/06/07 06:48:05;;;;;;;12.75;4.18;;;14.10;99.90;;;;;;5082106;28;20036;-82
2023/06/07 06:50:31;;;;;;;12.95;4.28;;;14.20;99.90;;;;;;5059614;28;20036;-82
2023/06/07 06:52:57;;;;;;;11.10;3.90;;;14.70;99.90;;;;;;5084875;28;20046;-82
2023/06/07 06:55:23;;;;;;;12.68;5.53;;;15.00;99.90;;;;;;5077191;28;20043;-82
2023/06/07 06:57:49;;;;;;;10.40;3.92;;;14.60;99.90;;;;;;5056558;28;20048;-82
2023/06/07 07:00:15;;;;;;;9.95;4.47;;;14.90;99.90;;;;;;5076646;28;20037;-82
2023/06/07 07:02:41;;;;;;;7.70;3.85;;;14.70;99.90;;;;;;5082987;28;20123;-82
2023/06/07 07:05:07;;;;;;;10.40;3.72;;;14.90;99.90;;;;;;5072929;28;20637;-82
2023/06/07 07:07:33;;;;;;;12.27;4.25;;;15.40;99.90;;;;;;5100209;27;20032;-82
2023/06/07 07:09:59;;;;;;;13.95;4.72;;;15.00;99.90;;;;;;5084318;28;20036;-82
2023/06/07 07:12:25;;;;;;;9.65;3.60;;;15.70;99.90;;;;;;5090745;28;20495;-82
2023/06/07 07:14:51;;;;;;;11.45;3.70;;;16.10;99.90;;;;;;5063254;28;20060;-82
2023/06/07 07:17:17;;;;;;;7.47;3.90;;;16.30;99.90;;;;;;5071700;28;20040;-82
2023/06/07 07:19:43;;;;;;;10.07;4.07;;;15.80;99.90;;;;;;5062724;28;20422;-82
2023/06/07 07:22:09;;;;;;;9.75;3.28;;;15.50;99.90;;;;;;5088948;28;20063;-82
2023/06/07 07:24:34;;;;;;;12.10;3.90;;;15.40;99.90;;;;;;5081352;28;20063;-82
2023/06/07 07:27:00;;;;;;;11.05;4.25;;;14.40;99.90;;;;;;5086593;28;20390;-83
2023/06/07 07:29:26;;;;;;;10.52;4.07;;;14.50;99.90;;;;;;5061072;28;20033;-82
2023/06/07 07:31:52;;;;;;;8.10;3.90;;;14.40;99.90;;;;;;5082910;28;20079;-82
2023/06/07 07:34:18;;;;;;;10.05;4.03;;;14.70;99.90;;;;;;5086379;28;20637;-82
2023/06/07 07:36:44;;;;;;;7.78;3.72;;;14.90;99.90;;;;;;5059179;28;20047;-83
2023/06/07 07:39:16;;;;;;;12.35;3.72;;;14.60;99.90;;;;;;5080505;28;20743;-82
2023/06/07 07:41:42;;;;;;;16.55;4.15;;;14.80;99.90;;;;;;5070494;28;20882;-82
2023/06/07 07:44:08;;;;;;;11.73;4.10;;;15.10;99.90;;;;;;5069762;28;20385;-82
2023/06/07 07:46:36;;;;;;;9.63;4.22;;;15.40;99.90;;;;;;5070490;28;20032;-83
2023/06/07 07:49:02;;;;;;;10.95;3.92;;;15.50;99.90;;;;;;5081110;28;20035;-83
2023/06/07 07:51:28;;;;;;;9.88;4.30;;;15.20;99.90;;;;;;5066682;28;20035;-84
2023/06/07 07:53:53;;;;;;;8.88;3.70;;;15.40;99.90;;;;;;5064258;28;20074;-84
2023/06/07 07:56:21;;;;;;;10.57;3.92;;;15.20;99.90;;;;;;5079763;28;20438;-84
2023/06/07 07:58:48;;;;;;;9.07;3.42;;;15.20;99.90;;;;;;5062250;28;20032;-84
2023/06/07 08:01:23;;;;;;;10.70;4.38;;;15.50;99.90;;;;;;5071994;28;20498;-84
2023/06/07 08:03:49;;;;;;;10.77;4.30;;;15.20;99.90;;;;;;5089226;27;20101;-84
2023/06/07 08:06:18;;;;;;;9.80;3.97;;;15.20;99.90;;;;;;5063337;28;20139;-84
2023/06/07 08:08:46;;;;;;;15.43;4.38;;;15.50;99.90;;;;;;5066138;28;20024;-83
2023/06/07 08:11:12;;;;;;;11.02;3.78;;;15.70;99.90;;;;;;5067504;28;20046;-84
2023/06/07 08:13:38;;;;;;;11.27;4.15;;;15.70;99.90;;;;;;5082567;28;20040;-84
2023/06/07 08:16:05;;;;;;;10.43;3.70;;;15.60;99.90;;;;;;5075284;28;20134;-84
2023/06/07 08:18:30;;;;;;;9.75;3.58;;;15.80;99.90;;;;;;5060640;28;20461;-84
2023/06/07 08:20:56;;;;;;;7.50;3.85;;;16.00;99.90;;;;;;5067032;28;20047;-84
2023/06/07 08:23:21;;;;;;;10.10;3.65;;;16.00;99.90;;;;;;5070796;28;20040;-84
2023/06/07 08:25:47;;;;;;;10.30;4.35;;;16.00;99.90;;;;;;5078270;28;20149;-84
2023/06/07 08:28:13;;;;;;;10.05;4.32;;;16.10;99.90;;;;;;5083398;28;20043;-83
2023/06/07 08:30:41;;;;;;;12.10;4.07;;;16.50;99.90;;;;;;5069934;28;20028;-84
2023/06/07 08:33:07;;;;;;;8.82;3.70;;;16.60;99.90;;;;;;5064619;28;20032;-83
2023/06/07 08:35:33;;;;;;;10.40;4.00;;;16.60;99.90;;;;;;5060431;28;20498;-83
2023/06/07 08:38:00;;;;;;;7.88;3.63;;;16.40;99.90;;;;;;5082472;27;20225;-83
2023/06/07 08:40:26;;;;;;;11.05;4.00;;;16.20;99.90;;;;;;5093472;27;20149;-84
2023/06/07 08:42:52;;;;;;;10.50;4.00;;;16.20;99.90;;;;;;5099626;27;20078;-84
2023/06/07 08:45:18;;;;;;;9.35;4.28;;;16.20;99.90;;;;;;5106055;27;20433;-84
2023/06/07 08:47:45;;;;;;;11.77;3.65;;;16.30;99.90;;;;;;5107705;27;20151;-84
2023/06/07 08:50:13;;;;;;;10.70;3.92;;;16.60;99.90;;;;;;5105171;27;20477;-84
2023/06/07 08:52:45;;;;;;;9.23;3.78;;;16.60;99.90;;;;;;5090149;27;20312;-84
2023/06/07 08:55:11;;;;;;;14.20;4.18;;;16.80;99.90;;;;;;5117351;27;20383;-83
2023/06/07 08:57:37;;;;;;;8.45;3.65;;;16.70;99.90;;;;;;5112108;27;20073;-84
2023/06/07 09:00:08;;;;;;;12.63;4.25;;;17.00;99.90;;;;;;5090730;27;20453;-84
2023/06/07 09:02:34;;;;;;;10.60;4.75;;;16.70;99.90;;;;;;5104546;27;20632;-84
2023/06/07 09:05:05;;;;;;;11.57;3.72;;;16.90;99.90;;;;;;5123645;27;20115;-84
2023/06/07 09:07:32;;;;;;;10.95;3.75;;;16.70;99.90;;;;;;5086435;27;20098;-83
2023/06/07 09:10:01;;;;;;;14.63;4.32;;;16.60;99.90;;;;;;5133949;27;20043;-84
2023/06/07 09:12:27;;;;;;;11.48;4.07;;;16.70;99.90;;;;;;5103107;27;20625;-84
2023/06/07 09:14:54;;;;;;;12.63;4.65;;;17.20;99.90;;;;;;5110817;27;20066;-83
2023/06/07 09:17:20;;;;;;;10.50;3.58;;;17.40;99.90;;;;;;5088558;27;20078;-83
2023/06/07 09:19:46;;;;;;;6.95;3.42;;;17.20;99.90;;;;;;5119954;27;20032;-83
2023/06/07 09:22:22;;;;;;;11.55;3.67;;;17.30;99.90;;;;;;5097363;27;20043;-84
2023/06/07 09:24:52;;;;;;;10.80;3.85;;;17.30;99.90;;;;;;5103554;27;20138;-83
2023/06/07 09:27:31;;;;;;;9.60;4.10;;;17.20;99.90;;;;;;5120309;27;20437;-83
2023/06/07 09:30:05;;;;;;;18.10;4.60;;;17.60;99.90;;;;;;5110462;27;20118;-84
2023/06/07 09:32:36;;;;;;;9.95;4.60;;;17.70;99.90;;;;;;5081401;27;20051;-84
2023/06/07 09:35:12;;;;;;;11.85;4.78;;;17.90;99.90;;;;;;5101227;27;20361;-83
2023/06/07 09:37:43;;;;;;;13.15;4.47;;;17.60;99.90;;;;;;5107895;27;20039;-84
2023/06/07 09:40:09;;;;;;;11.82;4.22;;;18.00;99.90;;;;;;5116731;27;20058;-84
2023/06/07 09:42:38;;;;;;;15.43;4.18;;;17.70;99.90;;;;;;5115142;27;20039;-83
2023/06/07 09:45:15;;;;;;;10.07;4.80;;;18.00;99.90;;;;;;5128630;27;20466;-84
2023/06/07 09:47:45;;;;;;;9.65;4.50;;;17.80;99.90;;;;;;5126011;27;20097;-83
2023/06/07 09:50:12;;;;;;;10.20;4.25;;;17.80;99.90;;;;;;5118663;27;20031;-84
2023/06/07 09:52:41;;;;;;;8.93;3.83;;;18.00;99.90;;;;;;5086333;27;20114;-85
2023/06/07 09:55:08;;;;;;;9.48;4.15;;;18.10;99.90;;;;;;5126066;27;20122;-84
2023/06/07 09:57:38;;;;;;;9.07;3.80;;;18.40;99.90;;;;;;5105610;27;20070;-83
2023/06/07 10:02:35;;;;;;;10.18;4.18;;;18.20;99.90;;;;;;5120689;27;20039;-83
2023/06/07 10:05:00;;;;;;;7.43;3.60;;;18.20;99.90;;;;;;5136266;27;20043;-84
2023/06/07 10:07:31;;;;;;;14.52;5.03;;;18.40;99.90;;;;;;5095187;27;20199;-84
2023/06/07 10:10:00;;;;;;;11.77;4.53;;;18.40;99.90;;;;;;5109231;27;20435;-84
2023/06/07 10:12:31;;;;;;;11.65;4.97;;;18.00;99.90;;;;;;5087217;27;20401;-84
2023/06/07 10:15:05;;;;;;;9.73;3.42;;;19.10;99.90;;;;;;5127767;27;20031;-83
2023/06/07 10:17:48;;;;;;;8.55;4.10;;;19.10;99.90;;;;;;5125827;27;20105;-83
2023/06/07 10:20:41;;;;;;;11.27;4.53;;;18.80;99.90;;;;;;5108223;27;20499;-83
2023/06/07 10:23:10;;;;;;;8.85;3.83;;;18.50;99.90;;;;;;5100672;27;20542;-83
2023/06/07 10:26:25;;;;;;;9.30;3.72;;;19.00;99.90;;;;;;5092755;27;20116;-82
2023/06/07 10:29:06;;;;;;;6.55;3.90;;;19.00;1.00;;;;;;5093475;27;20043;-84
2023/06/07 10:31:40;;;;;;;8.20;4.30;;;19.20;99.90;;;;;;5109725;27;20125;-83
2023/06/07 10:34:09;;;;;;;9.18;4.20;;;18.90;1.00;;;;;;5144188;27;20126;-83
2023/06/07 10:36:41;;;;;;;9.63;5.03;;;19.50;99.90;;;;;;5093319;27;20126;-83
2023/06/07 10:39:07;;;;;;;8.07;4.18;;;19.10;36.30;;;;;;5119768;27;20061;-83
2023/06/07 10:41:35;;;;;;;8.93;4.65;;;19.70;99.90;;;;;;5105141;27;20062;-83
2023/06/07 10:44:01;;;;;;;10.65;4.15;;;19.40;97.00;;;;;;5125566;27;20042;-83
2023/06/07 10:46:28;;;;;;;12.07;4.82;;;19.70;99.90;;;;;;5108253;27;20122;-83
2023/06/07 10:48:56;;;;;;;10.18;4.15;;;19.30;37.70;;;;;;5136943;27;20079;-83
2023/06/07 10:51:44;;;;;;;9.95;4.40;;;19.70;99.90;;;;;;5137656;27;20081;-83
2023/06/07 10:54:11;;;;;;;11.05;4.28;;;19.50;99.90;;;;;;5101702;27;20403;-82
2023/06/07 10:56:38;;;;;;;9.55;3.90;;;19.60;56.60;;;;;;5115279;27;20179;-83
2023/06/07 10:59:24;;;;;;;15.88;4.57;;;20.10;99.90;;;;;;5090864;27;20039;-84
2023/06/07 11:01:55;;;;;;;10.23;4.93;;;19.80;1.00;;;;;;5095358;27;20047;-83
2023/06/07 11:04:31;;;;;;;11.60;4.18;;;19.40;99.90;;;;;;5101947;27;20031;-83
2023/06/07 11:07:20;;;;;;;12.48;4.88;;;19.70;10.00;;;;;;5137451;27;20480;-83
2023/06/07 11:09:48;;;;;;;13.63;4.60;;;20.10;99.90;;;;;;5098335;27;20062;-83
2023/06/07 11:12:35;;;;;;;13.82;4.63;;;19.70;99.90;;;;;;5124043;27;20370;-83
2023/06/07 11:15:16;;;;;;;9.80;5.68;;;20.60;99.90;;;;;;5086717;27;20092;-83
2023/06/07 11:17:56;;;;;;;13.25;5.22;;;20.00;99.90;;;;;;5137142;27;20603;-82
2023/06/07 11:20:37;;;;;;;8.68;4.10;;;20.00;99.90;;;;;;5114101;27;20040;-83
2023/06/07 11:23:28;;;;;;;11.20;4.55;;;20.10;66.40;;;;;;5105650;27;20030;-83
2023/06/07 11:26:06;;;;;;;12.02;4.88;;;20.20;99.90;;;;;;5119709;27;20035;-83
2023/06/07 11:28:33;;;;;;;14.82;4.90;;;19.90;99.90;;;;;;5125369;27;20035;-83
2023/06/07 11:31:00;;;;;;;11.73;4.57;;;21.10;99.90;;;;;;5110881;27;20042;-83
2023/06/07 11:33:30;;;;;;;12.98;4.45;;;20.70;99.90;;;;;;5098634;27;20031;-83
2023/06/07 11:35:56;;;;;;;12.55;4.63;;;20.50;99.90;;;;;;5086971;27;20505;-84
2023/06/07 11:38:23;;;;;;;9.02;5.03;;;21.00;99.90;;;;;;5094960;27;20206;-84
2023/06/07 11:40:50;;;;;;;9.45;4.47;;;20.30;99.90;;;;;;5122542;27;20065;-83
2023/06/07 11:43:21;;;;;;;8.77;4.10;;;20.40;1.00;;;;;;5110423;27;20094;-83
2023/06/07 11:45:49;;;;;;;11.48;4.40;;;21.40;99.90;;;;;;5113887;27;20035;-83
2023/06/07 11:48:15;;;;;;;8.95;4.25;;;21.60;86.50;;;;;;5120354;27;20407;-83
2023/06/07 11:50:45;;;;;;;9.77;4.25;;;22.20;16.40;;;;;;5143616;27;20031;-83
2023/06/07 11:53:15;;;;;;;10.23;4.45;;;22.20;99.90;;;;;;5093151;27;20047;-83
2023/06/07 11:55:41;;;;;;;8.82;3.90;;;22.40;99.90;;;;;;5120412;27;20043;-83
2023/06/07 11:58:07;;;;;;;12.18;5.10;;;22.50;99.90;;;;;;5096096;27;20405;-83
2023/06/07 12:00:37;;;;;;;9.75;4.20;;;22.40;17.30;;;;;;5085352;27;20030;-83
2023/06/07 12:03:05;;;;;;;12.75;4.43;;;22.20;72.00;;;;;;5104633;27;20042;-83
2023/06/07 12:05:31;;;;;;;10.40;4.38;;;22.90;99.90;;;;;;5084532;28;20118;-83
2023/06/07 12:08:04;;;;;;;10.32;4.60;;;21.90;1.00;;;;;;5082593;27;20139;-82
2023/06/07 12:10:33;;;;;;;8.98;4.15;;;21.30;99.90;;;;;;5114303;27;20054;-83
2023/06/07 12:13:07;;;;;;;17.25;5.38;;;21.20;99.90;;;;;;5106971;27;20128;-83
2023/06/07 12:15:34;;;;;;;12.87;4.43;;;21.00;99.90;;;;;;5125272;27;20050;-83
2023/06/07 12:18:02;;;;;;;7.72;3.90;;;21.20;1.00;;;;;;5107499;27;20098;-83
2023/06/07 12:20:29;;;;;;;9.15;4.53;;;21.30;99.90;;;;;;5111641;27;20293;-83
2023/06/07 12:23:03;;;;;;;10.20;4.30;;;21.30;99.90;;;;;;5099391;27;20047;-80
2023/06/07 12:25:28;;;;;;;11.07;4.15;;;20.80;99.90;;;;;;5101529;27;20036;-81
2023/06/07 12:27:54;;;;;;;10.10;4.18;;;21.20;99.90;;;;;;5089942;27;20035;-81
2023/06/07 12:30:20;;;;;;;10.52;3.95;;;20.80;99.90;;;;;;5140916;27;20091;-82
2023/06/07 12:32:47;;;;;;;11.52;4.50;;;20.70;1.00;;;;;;5108423;27;20042;-81
2023/06/07 12:35:13;;;;;;;10.57;4.38;;;20.70;99.90;;;;;;5101019;27;20046;-81
2023/06/07 12:37:39;;;;;;;9.68;4.15;;;21.50;99.90;;;;;;5100546;27;20417;-81
2023/06/07 12:40:08;;;;;;;10.48;4.43;;;21.10;99.90;;;;;;5118609;27;20137;-81
2023/06/07 12:42:39;;;;;;;9.80;4.30;;;21.60;99.90;;;;;;5099607;27;20146;-80
2023/06/07 12:45:07;;;;;;;8.85;4.20;;;21.30;99.90;;;;;;5126537;27;20126;-80
2023/06/07 12:47:33;;;;;;;11.98;4.03;;;21.80;99.90;;;;;;5087379;27;20039;-81
2023/06/07 12:49:59;;;;;;;9.52;4.40;;;21.40;99.90;;;;;;5125396;27;20046;-81